createdAt,value
2018-11-05T00:00:16.497Z,11.00
2018-11-05T00:02:45.054Z,10.90
2018-11-05T00:05:13.817Z,10.90
2018-11-05T00:07:42.604Z,10.50
2018-11-05T00:10:11.147Z,10.90
2018-11-05T00:12:39.787Z,10.50
2018-11-05T00:15:08.679Z,10.90
2018-11-05T00:17:37.466Z,11.00
2018-11-05T00:20:06.736Z,10.90
2018-11-05T00:22:35.273Z,10.70
2018-11-05T00:25:03.886Z,10.60
2018-11-05T00:27:32.421Z,10.60
2018-11-05T00:30:00.919Z,10.70
2018-11-05T00:32:29.419Z,10.60
2018-11-05T00:34:57.919Z,10.80
2018-11-05T00:39:54.624Z,10.70
2018-11-05T00:42:23.132Z,10.70
2018-11-05T00:44:51.712Z,11.00
2018-11-05T00:47:20.182Z,10.60
2018-11-05T00:49:48.723Z,10.50
2018-11-05T00:52:17.443Z,10.70
2018-11-05T00:54:45.977Z,10.20
2018-11-05T00:57:14.527Z,10.60
2018-11-05T00:59:43.042Z,10.40
2018-11-05T01:04:40.384Z,10.50
2018-11-05T01:07:08.889Z,10.50
2018-11-05T01:09:37.403Z,10.50
2018-11-05T01:12:05.997Z,10.60
2018-11-05T01:14:34.522Z,10.10
2018-11-05T01:17:03.073Z,10.40
2018-11-05T01:19:31.582Z,10.50
2018-11-05T01:22:00.110Z,10.50
2018-11-05T01:24:28.633Z,10.40
2018-11-05T01:26:57.237Z,10.30
2018-11-05T01:29:25.763Z,10.40
2018-11-05T01:31:54.286Z,10.40
2018-11-05T01:34:22.811Z,10.40
2018-11-05T01:36:51.329Z,10.40
2018-11-05T01:39:19.873Z,10.40
2018-11-05T01:41:48.377Z,10.50
2018-11-05T01:44:16.917Z,10.40
2018-11-05T01:46:45.439Z,10.40
2018-11-05T01:49:13.945Z,10.40
2018-11-05T01:51:42.442Z,10.40
2018-11-05T01:54:10.933Z,10.40
2018-11-05T01:56:39.475Z,10.40
2018-11-05T01:59:07.995Z,10.30
2018-11-05T02:01:36.481Z,10.30
2018-11-05T02:04:05.491Z,10.20
2018-11-05T02:06:34.009Z,10.20
2018-11-05T02:09:02.547Z,10.20
2018-11-05T02:11:31.076Z,10.20
2018-11-05T02:13:59.571Z,10.30
2018-11-05T02:16:28.131Z,10.30
2018-11-05T02:18:56.580Z,10.40
2018-11-05T02:21:25.100Z,10.30
2018-11-05T02:23:53.611Z,10.30
2018-11-05T02:26:22.175Z,10.30
2018-11-05T02:28:50.751Z,10.30
2018-11-05T02:31:19.278Z,10.30
2018-11-05T02:33:47.805Z,10.30
2018-11-05T02:36:16.326Z,10.30
2018-11-05T02:38:44.829Z,10.30
2018-11-05T02:41:13.298Z,10.30
2018-11-05T02:43:41.855Z,10.30
2018-11-05T02:46:10.381Z,10.40
2018-11-05T02:48:38.878Z,10.40
2018-11-05T02:51:07.371Z,10.10
2018-11-05T02:53:35.883Z,10.40
2018-11-05T02:56:04.422Z,10.00
2018-11-05T02:58:32.912Z,10.40
2018-11-05T03:01:01.437Z,10.30
2018-11-05T03:03:29.941Z,10.40
2018-11-05T03:05:58.486Z,10.10
2018-11-05T03:08:27.046Z,10.10
2018-11-05T03:13:23.736Z,10.00
2018-11-05T03:15:52.230Z,10.00
2018-11-05T03:18:20.734Z,10.00
2018-11-05T03:20:49.326Z,10.00
2018-11-05T03:23:17.857Z,10.00
2018-11-05T03:25:46.364Z,10.00
2018-11-05T03:28:14.925Z,10.00
2018-11-05T03:30:43.469Z,9.80
2018-11-05T03:33:11.955Z,9.90
2018-11-05T03:35:40.578Z,9.90
2018-11-05T03:38:09.063Z,9.90
2018-11-05T03:40:37.595Z,10.00
2018-11-05T03:43:06.087Z,9.90
2018-11-05T03:45:34.601Z,9.90
2018-11-05T03:48:03.311Z,9.80
2018-11-05T03:50:31.895Z,10.00
2018-11-05T03:53:00.462Z,9.90
2018-11-05T03:55:29.036Z,10.00
2018-11-05T03:57:57.500Z,10.00
2018-11-05T04:00:26.294Z,9.90
2018-11-05T04:02:54.792Z,9.90
2018-11-05T04:05:23.331Z,9.80
2018-11-05T04:07:51.813Z,9.80
2018-11-05T04:10:20.313Z,9.60
2018-11-05T04:12:48.847Z,9.70
2018-11-05T04:15:17.415Z,9.50
2018-11-05T04:17:45.989Z,9.60
2018-11-05T04:20:15.196Z,9.70
2018-11-05T04:22:44.514Z,9.60
2018-11-05T04:25:13.078Z,9.50
2018-11-05T04:27:41.593Z,9.40
2018-11-05T04:30:12.692Z,9.30
2018-11-05T04:32:41.603Z,9.20
2018-11-05T04:35:10.626Z,9.20
2018-11-05T04:37:39.179Z,9.20
2018-11-05T04:40:08.691Z,9.20
2018-11-05T04:42:37.287Z,9.10
2018-11-05T04:45:07.191Z,9.10
2018-11-05T04:47:35.703Z,9.00
2018-11-05T04:50:05.188Z,9.00
2018-11-05T04:52:33.693Z,9.00
2018-11-05T04:55:02.245Z,8.90
2018-11-05T04:57:30.771Z,8.90
2018-11-05T05:00:03.385Z,10.10
2018-11-05T05:02:31.887Z,8.80
2018-11-05T05:05:00.401Z,8.60
2018-11-05T05:07:29.057Z,8.60
2018-11-05T05:09:57.627Z,8.50
2018-11-05T05:12:26.227Z,8.50
2018-11-05T05:14:54.771Z,8.50
2018-11-05T05:17:23.304Z,8.30
2018-11-05T05:19:51.865Z,8.40
2018-11-05T05:22:20.420Z,8.40
2018-11-05T05:24:48.919Z,8.20
2018-11-05T05:27:17.643Z,8.30
2018-11-05T05:29:46.208Z,8.10
2018-11-05T05:32:14.814Z,8.10
2018-11-05T05:34:43.369Z,8.10
2018-11-05T05:37:11.915Z,8.00
2018-11-05T05:39:40.800Z,8.00
2018-11-05T05:42:09.751Z,8.20
2018-11-05T05:44:38.369Z,8.10
2018-11-05T05:47:07.069Z,8.10
2018-11-05T05:49:36.019Z,8.00
2018-11-05T05:52:04.561Z,7.90
2018-11-05T05:54:33.139Z,7.90
2018-11-05T05:57:01.695Z,7.80
2018-11-05T05:59:30.245Z,7.70
2018-11-05T06:01:58.831Z,7.80
2018-11-05T06:04:27.657Z,7.90
2018-11-05T06:06:56.195Z,7.90
2018-11-05T06:09:24.693Z,7.90
2018-11-05T06:11:53.200Z,7.90
2018-11-05T06:14:21.711Z,7.80
2018-11-05T06:16:50.212Z,7.90
2018-11-05T06:19:18.678Z,7.90
2018-11-05T06:21:47.147Z,8.10
2018-11-05T06:24:15.721Z,8.20
2018-11-05T06:26:44.234Z,7.80
2018-11-05T06:29:13.018Z,8.50
2018-11-05T06:31:41.508Z,8.50
2018-11-05T06:34:10.038Z,8.60
2018-11-05T06:36:38.767Z,8.70
2018-11-05T06:39:10.418Z,8.70
2018-11-05T06:41:39.099Z,8.80
2018-11-05T06:44:07.635Z,8.90
2018-11-05T06:46:36.127Z,9.00
2018-11-05T06:49:04.824Z,9.00
2018-11-05T06:51:33.282Z,9.00
2018-11-05T06:54:02.463Z,9.10
2018-11-05T06:56:30.918Z,9.10
2018-11-05T06:58:59.437Z,9.20
2018-11-05T07:01:28.626Z,9.20
2018-11-05T07:03:57.198Z,9.30
2018-11-05T07:06:25.660Z,9.30
2018-11-05T07:08:54.124Z,9.40
2018-11-05T07:11:22.748Z,9.40
2018-11-05T07:13:51.209Z,9.40
2018-11-05T07:16:19.714Z,9.50
2018-11-05T07:18:48.346Z,9.50
2018-11-05T07:21:16.709Z,9.60
2018-11-05T07:23:45.228Z,9.70
2018-11-05T07:26:13.771Z,9.70
2018-11-05T07:28:42.233Z,9.70
2018-11-05T07:31:10.719Z,9.80
2018-11-05T07:33:39.220Z,9.80
2018-11-05T07:36:07.678Z,9.90
2018-11-05T07:38:36.167Z,10.00
2018-11-05T07:41:04.889Z,10.00
2018-11-05T07:43:33.403Z,10.10
2018-11-05T07:46:01.899Z,10.20
2018-11-05T07:48:30.395Z,10.20
2018-11-05T07:50:58.874Z,10.40
2018-11-05T07:53:27.383Z,10.50
2018-11-05T07:55:55.962Z,10.60
2018-11-05T07:58:24.390Z,10.90
2018-11-05T08:00:56.772Z,10.90
2018-11-05T08:03:25.779Z,11.00
2018-11-05T08:05:54.680Z,10.90
2018-11-05T08:08:23.321Z,10.90
2018-11-05T08:10:51.826Z,10.90
2018-11-05T08:13:20.343Z,11.10
2018-11-05T08:15:48.841Z,11.00
2018-11-05T08:18:17.343Z,10.90
2018-11-05T08:20:45.907Z,11.00
2018-11-05T08:23:14.392Z,11.10
2018-11-05T08:25:42.923Z,11.20
2018-11-05T08:28:11.427Z,11.20
2018-11-05T08:30:39.941Z,11.20
2018-11-05T08:33:08.570Z,11.20
2018-11-05T08:35:37.059Z,11.20
2018-11-05T08:38:05.711Z,11.20
2018-11-05T08:40:34.209Z,11.30
2018-11-05T08:45:31.301Z,11.20
2018-11-05T08:47:59.779Z,11.30
2018-11-05T08:50:28.341Z,11.30
2018-11-05T08:52:56.827Z,11.30
2018-11-05T08:55:26.519Z,11.30
2018-11-05T08:57:55.056Z,11.40
2018-11-05T09:00:28.833Z,11.50
2018-11-05T09:02:57.407Z,11.60
2018-11-05T09:05:25.965Z,11.60
2018-11-05T09:07:55.205Z,11.60
2018-11-05T09:10:23.920Z,11.60
2018-11-05T09:12:52.282Z,11.60
2018-11-05T09:15:21.777Z,11.70
2018-11-05T09:17:50.480Z,11.70
2018-11-05T09:20:19.696Z,11.80
2018-11-05T09:22:49.077Z,11.90
2018-11-05T09:25:17.901Z,11.90
2018-11-05T09:27:46.499Z,12.10
2018-11-05T09:30:17.678Z,12.10
2018-11-05T09:32:46.778Z,12.30
2018-11-05T09:35:15.486Z,12.30
2018-11-05T09:37:44.057Z,12.40
2018-11-05T09:40:15.764Z,12.50
2018-11-05T09:42:45.101Z,12.60
2018-11-05T09:45:16.126Z,12.90
2018-11-05T09:47:45.393Z,13.10
2018-11-05T09:50:14.300Z,13.20
2018-11-05T09:52:42.810Z,13.60
2018-11-05T09:55:12.234Z,13.80
2018-11-05T09:57:41.108Z,13.80
2018-11-05T10:00:11.432Z,13.90
2018-11-05T10:02:45.309Z,13.90
2018-11-05T10:05:14.565Z,14.00
2018-11-05T10:07:43.447Z,13.90
2018-11-05T10:10:12.977Z,14.00
2018-11-05T10:12:41.837Z,13.90
2018-11-05T10:15:11.716Z,14.00
2018-11-05T10:17:40.632Z,14.00
2018-11-05T10:20:12.983Z,14.10
2018-11-05T10:22:41.548Z,14.30
2018-11-05T10:25:11.204Z,14.40
2018-11-05T10:27:39.718Z,14.50
2018-11-05T10:30:12.568Z,14.50
2018-11-05T10:32:41.337Z,14.40
2018-11-05T10:35:10.174Z,14.40
2018-11-05T10:37:38.728Z,14.40
2018-11-05T10:40:09.872Z,14.30
2018-11-05T10:42:38.388Z,14.30
2018-11-05T10:45:08.133Z,14.40
2018-11-05T10:47:37.144Z,14.50
2018-11-05T10:50:06.178Z,14.70
2018-11-05T10:52:34.981Z,15.10
2018-11-05T10:55:03.526Z,15.30
2018-11-05T10:57:32.045Z,15.60
2018-11-05T11:00:00.520Z,16.00
2018-11-05T11:02:40.115Z,16.50
2018-11-05T11:05:08.660Z,17.10
2018-11-05T11:07:37.167Z,17.70
2018-11-05T11:10:06.034Z,18.10
2018-11-05T11:12:34.521Z,18.60
2018-11-05T11:17:31.159Z,19.40
2018-11-05T11:19:59.646Z,19.30
2018-11-05T11:22:28.135Z,19.40
2018-11-05T11:24:56.624Z,19.60
2018-11-05T11:27:25.113Z,19.90
2018-11-05T11:29:53.596Z,20.00
2018-11-05T11:32:22.065Z,20.00
2018-11-05T11:34:50.573Z,20.00
2018-11-05T11:37:19.173Z,20.10
2018-11-05T11:39:47.656Z,20.40
2018-11-05T11:42:16.160Z,20.90
2018-11-05T11:44:44.698Z,21.10
2018-11-05T11:47:13.213Z,21.10
2018-11-05T11:49:41.701Z,21.30
2018-11-05T11:52:10.217Z,21.90
2018-11-05T11:54:38.746Z,21.80
2018-11-05T11:57:07.277Z,22.20
2018-11-05T11:59:35.814Z,22.40
2018-11-05T12:02:09.974Z,22.50
2018-11-05T12:04:38.596Z,22.70
2018-11-05T12:07:07.161Z,22.40
2018-11-05T12:09:36.134Z,22.50
2018-11-05T12:12:04.917Z,22.50
2018-11-05T12:14:33.516Z,22.00
2018-11-05T12:17:01.991Z,22.10
2018-11-05T12:19:30.521Z,22.10
2018-11-05T12:21:59.030Z,21.70
2018-11-05T12:24:27.584Z,21.40
2018-11-05T12:26:56.116Z,21.30
2018-11-05T12:29:24.629Z,21.60
2018-11-05T12:31:53.125Z,21.90
2018-11-05T12:34:21.602Z,21.80
2018-11-05T12:36:50.099Z,21.90
2018-11-05T12:39:18.613Z,21.90
2018-11-05T12:41:47.110Z,21.50
2018-11-05T12:44:15.617Z,21.30
2018-11-05T12:46:44.156Z,21.20
2018-11-05T12:49:12.823Z,21.60
2018-11-05T12:51:41.350Z,22.20
2018-11-05T12:54:09.867Z,22.60
2018-11-05T12:56:38.410Z,22.90
2018-11-05T12:59:07.080Z,22.20
2018-11-05T13:01:35.592Z,22.30
2018-11-05T13:04:04.126Z,22.10
2018-11-05T13:06:32.629Z,22.30
2018-11-05T13:09:01.137Z,22.30
2018-11-05T13:11:29.628Z,22.10
2018-11-05T13:13:58.132Z,22.30
2018-11-05T13:16:26.636Z,22.30
2018-11-05T13:18:55.122Z,22.20
2018-11-05T13:21:23.603Z,22.10
2018-11-05T13:23:52.088Z,21.90
2018-11-05T13:26:20.576Z,21.10
2018-11-05T13:28:49.046Z,20.90
2018-11-05T13:31:17.526Z,20.70
2018-11-05T13:33:46.002Z,20.40
2018-11-05T13:36:14.485Z,19.90
2018-11-05T13:41:11.180Z,19.60
2018-11-05T13:43:39.662Z,19.30
2018-11-05T13:46:08.485Z,19.00
2018-11-05T13:48:37.133Z,19.00
2018-11-05T13:51:05.823Z,18.90
2018-11-05T13:53:34.328Z,18.80
2018-11-05T13:56:02.816Z,18.80
2018-11-05T13:58:31.356Z,18.80
2018-11-05T14:00:59.836Z,18.90
2018-11-05T14:03:28.429Z,18.70
2018-11-05T14:05:56.934Z,18.70
2018-11-05T14:08:25.421Z,18.80
2018-11-05T14:10:53.979Z,18.70
2018-11-05T14:13:22.434Z,18.70
2018-11-05T14:15:51.152Z,18.50
2018-11-05T14:18:19.710Z,18.50
2018-11-05T14:20:48.185Z,18.50
2018-11-05T14:23:16.686Z,18.60
2018-11-05T14:25:45.263Z,18.40
2018-11-05T14:28:13.819Z,18.30
2018-11-05T14:30:42.156Z,18.20
2018-11-05T14:33:10.676Z,18.20
2018-11-05T14:35:39.172Z,18.20
2018-11-05T14:38:07.728Z,18.00
2018-11-05T14:40:36.210Z,18.00
2018-11-05T14:43:04.985Z,17.90
2018-11-05T14:45:33.419Z,17.80
2018-11-05T14:48:01.900Z,17.80
2018-11-05T14:50:30.429Z,17.60
2018-11-05T14:52:58.922Z,17.50
2018-11-05T14:55:27.395Z,17.50
2018-11-05T14:57:55.930Z,17.40
2018-11-05T15:00:25.801Z,17.30
2018-11-05T15:02:54.722Z,17.10
2018-11-05T15:05:23.309Z,17.10
2018-11-05T15:07:51.984Z,17.10
2018-11-05T15:10:21.846Z,17.00
2018-11-05T15:12:50.517Z,16.80
2018-11-05T15:15:19.923Z,16.70
2018-11-05T15:17:48.601Z,16.50
2018-11-05T15:20:19.474Z,16.30
2018-11-05T15:22:47.917Z,16.30
2018-11-05T15:25:16.847Z,16.20
2018-11-05T15:27:45.378Z,16.10
2018-11-05T15:30:16.147Z,15.90
2018-11-05T15:32:44.786Z,15.70
2018-11-05T15:35:13.325Z,15.70
2018-11-05T15:37:42.306Z,15.40
2018-11-05T15:40:12.777Z,15.40
2018-11-05T15:42:41.301Z,15.20
2018-11-05T15:45:11.626Z,15.00
2018-11-05T15:47:40.892Z,14.90
2018-11-05T15:52:40.024Z,14.70
2018-11-05T15:55:08.252Z,14.60
2018-11-05T15:57:37.600Z,14.70
2018-11-05T16:00:17.301Z,14.30
2018-11-05T16:05:15.134Z,14.00
2018-11-05T16:07:43.733Z,14.30
2018-11-05T16:10:12.292Z,14.30
2018-11-05T16:12:40.863Z,14.10
2018-11-05T16:15:10.540Z,14.40
2018-11-05T16:17:39.399Z,14.00
2018-11-05T16:20:11.762Z,13.90
2018-11-05T16:22:40.460Z,13.70
2018-11-05T16:25:09.103Z,13.20
2018-11-05T16:27:37.712Z,13.70
2018-11-05T16:30:08.777Z,13.40
2018-11-05T16:32:37.322Z,13.50
2018-11-05T16:35:06.089Z,13.40
2018-11-05T16:37:34.894Z,13.50
2018-11-05T16:40:03.713Z,13.20
2018-11-05T16:42:32.282Z,13.00
2018-11-05T16:45:00.904Z,13.10
2018-11-05T16:47:29.538Z,12.90
2018-11-05T16:52:26.442Z,12.90
2018-11-05T16:54:55.072Z,13.10
2018-11-05T16:57:23.759Z,12.80
2018-11-05T16:59:52.383Z,12.70
2018-11-05T17:02:21.786Z,12.90
2018-11-05T17:04:49.977Z,12.50
2018-11-05T17:07:19.572Z,12.70
2018-11-05T17:09:48.187Z,12.70
2018-11-05T17:12:16.884Z,12.80
2018-11-05T17:14:45.438Z,12.50
2018-11-05T17:19:43.295Z,12.40
2018-11-05T17:22:11.931Z,12.50
2018-11-05T17:24:41.613Z,12.40
2018-11-05T17:27:10.231Z,12.80
2018-11-05T17:29:41.021Z,12.40
2018-11-05T17:32:10.573Z,12.30
2018-11-05T17:34:39.176Z,12.30
2018-11-05T17:37:07.770Z,12.20
2018-11-05T17:42:05.153Z,12.40
2018-11-05T17:44:33.747Z,12.40
2018-11-05T17:47:02.338Z,11.80
2018-11-05T17:49:31.097Z,12.30
2018-11-05T17:52:00.727Z,12.30
2018-11-05T17:54:29.352Z,12.20
2018-11-05T17:56:58.733Z,12.20
2018-11-05T17:59:28.496Z,12.20
2018-11-05T18:01:57.199Z,12.40
2018-11-05T18:04:26.327Z,12.20
2018-11-05T18:06:54.958Z,12.30
2018-11-05T18:09:23.960Z,12.20
2018-11-05T18:11:52.924Z,12.20
2018-11-05T18:14:23.382Z,12.30
2018-11-05T18:16:52.109Z,13.90
2018-11-05T18:19:21.167Z,12.20
2018-11-05T18:21:50.213Z,12.10
2018-11-05T18:24:19.362Z,12.10
2018-11-05T18:26:48.805Z,12.10
2018-11-05T18:29:19.204Z,11.70
2018-11-05T18:31:48.185Z,11.80
2018-11-05T18:34:17.103Z,11.80
2018-11-05T18:36:46.723Z,11.80
2018-11-05T18:39:16.707Z,11.60
2018-11-05T18:41:50.473Z,11.60
2018-11-05T18:44:20.811Z,11.70
2018-11-05T18:46:50.738Z,11.70
2018-11-05T18:49:19.984Z,11.70
2018-11-05T18:51:49.858Z,11.50
2018-11-05T18:54:19.404Z,11.70
2018-11-05T18:56:49.622Z,11.50
2018-11-05T18:59:18.312Z,11.50
2018-11-05T19:01:47.944Z,11.30
2018-11-05T19:04:21.269Z,11.10
2018-11-05T19:06:50.387Z,11.30
2018-11-05T19:09:19.041Z,11.40
2018-11-05T19:11:48.363Z,11.40
2018-11-05T19:14:17.995Z,11.50
2018-11-05T19:16:47.589Z,11.40
2018-11-05T19:19:16.947Z,11.20
2018-11-05T19:21:46.611Z,11.10
2018-11-05T19:24:17.533Z,10.60
2018-11-05T19:26:46.901Z,10.80
2018-11-05T19:29:15.597Z,10.90
2018-11-05T19:31:46.921Z,10.60
2018-11-05T19:34:15.576Z,10.70
2018-11-05T19:36:45.248Z,10.50
2018-11-05T19:39:14.497Z,10.50
2018-11-05T19:41:45.256Z,10.40
2018-11-05T19:44:15.252Z,10.60
2018-11-05T19:49:16.739Z,10.40
2018-11-05T19:51:46.187Z,10.60
2018-11-05T19:54:14.852Z,10.30
2018-11-05T19:56:43.534Z,10.50
2018-11-05T19:59:13.323Z,10.50
2018-11-05T20:01:42.012Z,10.60
2018-11-05T20:04:12.366Z,10.40
2018-11-05T20:06:41.194Z,10.70
2018-11-05T20:09:12.251Z,10.20
2018-11-05T20:11:42.336Z,10.30
2018-11-05T20:14:11.279Z,10.50
2018-11-05T20:16:45.495Z,10.60
2018-11-05T20:21:48.816Z,10.30
2018-11-05T20:24:19.152Z,10.80
2018-11-05T20:29:18.868Z,10.20
2018-11-05T20:34:16.261Z,10.20
2018-11-05T20:36:46.615Z,10.00
2018-11-05T20:39:16.607Z,10.10
2018-11-05T20:41:45.990Z,10.20
2018-11-05T20:44:15.168Z,9.30
2018-11-05T20:46:44.119Z,10.00
2018-11-05T20:49:13.300Z,10.10
2018-11-05T20:51:42.957Z,10.00
2018-11-05T20:54:14.099Z,9.70
2018-11-05T20:56:44.325Z,9.80
2018-11-05T20:59:12.916Z,9.80
2018-11-05T21:01:43.837Z,9.70
2018-11-05T21:04:13.023Z,9.80
2018-11-05T21:06:42.362Z,9.70
2018-11-05T21:09:11.968Z,9.90
2018-11-05T21:11:40.817Z,9.70
2018-11-05T21:14:09.511Z,10.00
2018-11-05T21:16:38.710Z,10.00
2018-11-05T21:19:09.101Z,9.80
2018-11-05T21:21:38.519Z,9.60
2018-11-05T21:24:10.297Z,9.60
2018-11-05T21:26:39.775Z,9.80
2018-11-05T21:29:08.451Z,9.50
2018-11-05T21:31:37.212Z,9.80
2018-11-05T21:34:07.232Z,10.00
2018-11-05T21:36:35.880Z,9.60
2018-11-05T21:39:07.945Z,9.50
2018-11-05T21:41:36.592Z,9.60
2018-11-05T21:46:36.148Z,10.10
2018-11-05T21:49:05.236Z,10.00
2018-11-05T21:54:03.211Z,9.30
2018-11-05T21:56:31.805Z,9.80
2018-11-05T21:59:00.379Z,9.60
2018-11-05T22:01:28.979Z,9.10
2018-11-05T22:03:58.365Z,9.50
2018-11-05T22:06:26.904Z,9.50
2018-11-05T22:08:55.509Z,9.40
2018-11-05T22:11:24.063Z,9.50
2018-11-05T22:13:52.571Z,9.40
2018-11-05T22:16:21.056Z,9.50
2018-11-05T22:18:49.731Z,9.50
2018-11-05T22:23:46.487Z,9.40
2018-11-05T22:26:15.175Z,9.50
2018-11-05T22:28:43.692Z,9.40
2018-11-05T22:31:12.240Z,9.30
2018-11-05T22:36:09.040Z,8.80
2018-11-05T22:38:37.561Z,9.10
2018-11-05T22:41:06.582Z,9.70
2018-11-05T22:43:35.079Z,9.20
2018-11-05T22:46:03.604Z,9.20
2018-11-05T22:48:32.130Z,9.30
2018-11-05T22:51:00.625Z,9.30
2018-11-05T22:53:29.115Z,9.10
2018-11-05T22:55:57.605Z,9.30
2018-11-05T22:58:26.105Z,9.10
2018-11-05T23:03:29.551Z,8.80
2018-11-05T23:05:58.459Z,9.00
2018-11-05T23:08:27.234Z,8.70
2018-11-05T23:10:55.713Z,8.90
2018-11-05T23:13:24.219Z,8.90
2018-11-05T23:15:52.731Z,8.90
2018-11-05T23:18:21.245Z,8.90
2018-11-05T23:20:49.710Z,9.00
2018-11-05T23:23:18.208Z,8.90
2018-11-05T23:25:46.684Z,8.80
2018-11-05T23:30:43.313Z,8.80
2018-11-05T23:33:11.860Z,8.70
2018-11-05T23:35:40.293Z,8.80
2018-11-05T23:38:08.799Z,8.90
2018-11-05T23:40:37.332Z,8.70
2018-11-05T23:43:05.794Z,8.70
2018-11-05T23:45:34.273Z,8.80
2018-11-05T23:48:02.755Z,8.60
2018-11-05T23:50:31.239Z,8.60
2018-11-05T23:52:59.673Z,8.90
2018-11-05T23:55:28.140Z,8.60
2018-11-05T23:57:56.615Z,9.00
